createdAt,value
2018-09-17T00:00:49.572Z,15.60
2018-09-17T00:06:11.410Z,15.70
2018-09-17T00:11:34.727Z,15.80
2018-09-17T00:16:56.712Z,15.80
2018-09-17T00:22:18.832Z,15.70
2018-09-17T00:27:40.738Z,15.70
2018-09-17T00:33:02.806Z,15.60
2018-09-17T00:38:24.604Z,15.70
2018-09-17T00:43:46.712Z,15.60
2018-09-17T00:49:08.597Z,15.80
2018-09-17T00:54:31.345Z,15.60
2018-09-17T00:59:53.434Z,15.60
2018-09-17T01:05:15.271Z,15.50
2018-09-17T01:10:37.441Z,15.70
2018-09-17T01:15:59.494Z,15.80
2018-09-17T01:21:21.913Z,15.90
2018-09-17T01:26:44.439Z,16.10
2018-09-17T01:32:06.338Z,16.10
2018-09-17T01:37:28.529Z,16.20
2018-09-17T01:42:50.389Z,16.30
2018-09-17T01:48:12.627Z,16.40
2018-09-17T01:53:34.277Z,16.50
2018-09-17T01:58:57.085Z,16.40
2018-09-17T02:04:19.176Z,16.40
2018-09-17T02:09:42.524Z,16.50
2018-09-17T02:15:05.345Z,16.40
2018-09-17T02:20:27.334Z,16.50
2018-09-17T02:25:49.162Z,16.60
2018-09-17T02:31:11.227Z,16.60
2018-09-17T03:26:10.437Z,16.70
2018-09-17T03:31:32.382Z,16.80
2018-09-17T03:36:54.175Z,16.90
2018-09-17T03:42:16.358Z,16.80
2018-09-17T03:47:38.186Z,16.80
2018-09-17T03:53:00.820Z,16.80
2018-09-17T03:58:23.843Z,16.80
2018-09-17T04:03:45.986Z,16.90
2018-09-17T04:09:10.017Z,16.90
2018-09-17T04:14:31.985Z,16.90
2018-09-17T04:19:54.110Z,16.90
2018-09-17T04:25:16.246Z,16.90
2018-09-17T04:30:38.702Z,16.90
2018-09-17T04:36:00.838Z,16.90
2018-09-17T04:41:22.906Z,16.90
2018-09-17T04:46:45.017Z,16.90
2018-09-17T04:52:06.734Z,16.90
2018-09-17T04:57:28.844Z,16.90
2018-09-17T05:02:50.754Z,17.00
2018-09-17T05:08:12.893Z,17.10
2018-09-17T05:13:34.843Z,17.00
2018-09-17T05:18:57.003Z,16.90
2018-09-17T05:24:18.998Z,16.80
2018-09-17T05:29:41.002Z,16.80
2018-09-17T05:35:03.078Z,16.80
2018-09-17T05:40:25.410Z,16.80
2018-09-17T05:45:47.750Z,16.70
2018-09-17T05:51:09.665Z,16.70
2018-09-17T05:56:31.846Z,16.60
2018-09-17T06:01:53.733Z,16.50
2018-09-17T06:07:16.013Z,16.40
2018-09-17T06:12:37.907Z,16.40
2018-09-17T06:17:59.935Z,16.40
2018-09-17T06:23:21.862Z,16.30
2018-09-17T06:28:43.938Z,16.30
2018-09-17T06:34:05.828Z,16.40
2018-09-17T06:39:28.178Z,16.50
2018-09-17T06:44:51.519Z,16.60
2018-09-17T06:50:13.578Z,16.60
2018-09-17T06:55:36.835Z,16.70
2018-09-17T07:00:58.975Z,16.60
2018-09-17T07:06:20.845Z,16.70
2018-09-17T07:11:46.964Z,16.80
2018-09-17T07:17:12.149Z,16.80
2018-09-17T07:22:33.844Z,16.80
2018-09-17T07:27:56.174Z,16.80
2018-09-17T07:33:18.547Z,16.80
2018-09-17T07:38:43.079Z,16.90
2018-09-17T07:44:05.817Z,16.90
2018-09-17T07:49:28.157Z,16.90
2018-09-17T07:54:50.101Z,17.00
2018-09-17T08:00:12.346Z,17.10
2018-09-17T08:05:34.194Z,17.20
2018-09-17T08:10:56.327Z,17.30
2018-09-17T08:16:20.353Z,17.40
2018-09-17T08:21:44.273Z,17.40
2018-09-17T08:27:10.306Z,17.40
2018-09-17T08:32:35.535Z,17.50
2018-09-17T08:38:02.217Z,17.60
2018-09-17T08:43:25.988Z,17.80
2018-09-17T08:48:50.594Z,17.90
2018-09-17T08:54:13.645Z,18.10
2018-09-17T08:59:40.688Z,18.40
2018-09-17T09:05:07.571Z,18.50
2018-09-17T09:10:34.740Z,18.70
2018-09-17T09:15:56.497Z,18.90
2018-09-17T09:21:20.193Z,19.20
2018-09-17T09:26:41.886Z,19.30
2018-09-17T09:32:03.990Z,19.60
2018-09-17T09:37:25.814Z,19.80
2018-09-17T09:42:47.981Z,19.80
2018-09-17T09:48:09.992Z,19.80
2018-09-17T09:53:32.482Z,20.00
2018-09-17T09:58:58.732Z,20.30
2018-09-17T10:04:21.498Z,20.40
2018-09-17T10:09:48.182Z,20.40
2018-09-17T10:15:20.715Z,20.50
2018-09-17T10:20:42.669Z,20.50
2018-09-17T10:26:05.107Z,20.70
2018-09-17T10:31:26.955Z,20.90
2018-09-17T10:36:49.063Z,21.00
2018-09-17T10:42:10.748Z,21.30
2018-09-17T10:47:32.918Z,21.40
2018-09-17T10:52:54.966Z,21.50
2018-09-17T10:58:17.481Z,21.60
2018-09-17T11:03:39.170Z,21.70
2018-09-17T11:09:01.238Z,22.00
2018-09-17T11:14:23.146Z,22.00
2018-09-17T11:19:45.389Z,22.10
2018-09-17T11:25:07.261Z,22.20
2018-09-17T11:30:29.549Z,22.30
2018-09-17T11:35:51.851Z,22.50
2018-09-17T11:41:14.111Z,22.60
2018-09-17T11:46:36.186Z,22.70
2018-09-17T11:51:57.964Z,22.80
2018-09-17T11:57:19.956Z,22.70
2018-09-17T12:02:46.711Z,22.80
2018-09-17T12:08:12.034Z,22.80
2018-09-17T12:13:34.446Z,22.80
2018-09-17T12:18:56.293Z,22.90
2018-09-17T12:24:18.376Z,22.80
2018-09-17T12:29:40.234Z,22.60
2018-09-17T12:35:02.734Z,22.60
2018-09-17T12:40:26.975Z,22.50
2018-09-17T12:45:49.514Z,22.40
2018-09-17T12:51:11.352Z,22.40
2018-09-17T12:56:33.517Z,22.50
2018-09-17T13:01:55.348Z,22.60
2018-09-17T13:07:17.462Z,22.40
2018-09-17T13:12:39.101Z,22.40
2018-09-17T13:18:01.350Z,22.40
2018-09-17T13:23:23.227Z,22.20
2018-09-17T13:28:45.282Z,22.20
2018-09-17T13:34:07.114Z,22.30
2018-09-17T13:39:29.486Z,22.30
2018-09-17T13:44:51.188Z,22.20
2018-09-17T13:50:13.224Z,22.30
2018-09-17T13:55:35.103Z,22.30
2018-09-17T14:00:57.177Z,22.10
2018-09-17T14:06:19.049Z,22.10
2018-09-17T14:11:41.813Z,22.00
2018-09-17T14:17:04.002Z,22.00
2018-09-17T14:22:25.922Z,21.90
2018-09-17T14:27:48.241Z,22.00
2018-09-17T14:33:14.841Z,22.10
2018-09-17T14:38:37.009Z,22.10
2018-09-17T14:43:59.863Z,21.90
2018-09-17T14:49:22.318Z,21.70
2018-09-17T14:54:44.295Z,21.70
2018-09-17T15:00:06.314Z,21.90
2018-09-17T15:05:28.035Z,21.80
2018-09-17T15:10:50.209Z,21.70
2018-09-17T15:16:12.171Z,21.60
2018-09-17T15:21:34.245Z,21.60
2018-09-17T15:26:56.023Z,21.30
2018-09-17T15:32:18.160Z,21.10
2018-09-17T15:37:40.008Z,21.10
2018-09-17T15:43:02.506Z,21.00
2018-09-17T15:48:25.239Z,21.00
2018-09-17T15:53:46.941Z,21.00
2018-09-17T15:59:09.078Z,21.00
2018-09-17T16:04:30.845Z,20.90
2018-09-17T16:09:52.933Z,20.90
2018-09-17T16:15:15.400Z,20.70
2018-09-17T16:20:40.205Z,20.50
2018-09-17T16:26:02.813Z,20.50
2018-09-17T16:31:24.837Z,20.40
2018-09-17T16:36:47.175Z,20.30
2018-09-17T16:42:09.763Z,20.10
2018-09-17T16:47:32.098Z,20.10
2018-09-17T16:52:54.334Z,19.90
2018-09-17T16:58:16.454Z,19.90
2018-09-17T17:03:38.769Z,19.90
2018-09-17T17:09:00.777Z,19.90
2018-09-17T17:14:23.190Z,19.80
2018-09-17T17:19:44.959Z,19.80
2018-09-17T17:25:08.140Z,19.80
2018-09-17T17:30:30.245Z,19.80
2018-09-17T17:35:53.085Z,19.80
2018-09-17T17:41:15.161Z,19.70
2018-09-17T17:46:36.978Z,19.80
2018-09-17T17:51:59.264Z,19.80
2018-09-17T17:57:21.138Z,19.80
2018-09-17T18:02:43.205Z,19.70
2018-09-17T18:08:05.149Z,19.70
2018-09-17T18:13:27.214Z,19.70
2018-09-17T18:18:48.952Z,19.60
2018-09-17T18:24:11.066Z,19.60
2018-09-17T18:29:33.943Z,19.60
2018-09-17T18:34:56.178Z,19.60
2018-09-17T18:40:18.002Z,19.60
2018-09-17T18:45:40.209Z,19.60
2018-09-17T18:51:02.001Z,19.60
2018-09-17T18:56:24.429Z,19.60
2018-09-17T19:01:46.738Z,19.60
2018-09-17T19:07:08.603Z,19.60
2018-09-17T19:12:31.554Z,19.60
2018-09-17T19:17:53.623Z,19.60
2018-09-17T19:23:20.172Z,19.60
2018-09-17T19:28:46.951Z,19.60
2018-09-17T19:34:09.101Z,19.70
2018-09-17T19:39:36.117Z,19.70
2018-09-17T19:45:03.210Z,19.70
2018-09-17T19:50:30.408Z,19.60
2018-09-17T19:55:52.863Z,19.50
2018-09-17T20:01:14.794Z,19.60
2018-09-17T20:06:37.174Z,19.40
2018-09-17T20:11:59.307Z,19.30
2018-09-17T20:17:21.704Z,19.20
2018-09-17T20:22:43.856Z,19.00
2018-09-17T20:28:06.204Z,18.90
2018-09-17T20:33:31.385Z,18.90
2018-09-17T20:38:53.706Z,18.80
2018-09-17T20:44:16.146Z,18.90
2018-09-17T20:49:38.021Z,19.00
2018-09-17T20:55:03.541Z,18.90
2018-09-17T21:00:25.735Z,18.90
2018-09-17T21:05:47.627Z,18.80
2018-09-17T21:11:10.135Z,18.80
2018-09-17T21:16:32.921Z,18.80
2018-09-17T21:21:55.187Z,18.80
2018-09-17T21:27:17.165Z,18.90
2018-09-17T21:32:39.341Z,18.90
2018-09-17T21:38:01.133Z,18.80
2018-09-17T21:43:23.756Z,18.80
2018-09-17T21:48:45.998Z,18.90
2018-09-17T21:54:07.995Z,19.00
2018-09-17T21:59:30.034Z,19.10
2018-09-17T22:04:51.925Z,19.10
2018-09-17T22:10:14.041Z,19.10
2018-09-17T22:15:36.113Z,19.00
2018-09-17T22:20:58.168Z,19.00
2018-09-17T22:26:19.997Z,19.00
2018-09-17T22:31:42.059Z,18.90
2018-09-17T22:37:03.962Z,19.00
2018-09-17T22:42:26.205Z,18.90
2018-09-17T22:47:48.541Z,18.90
2018-09-17T22:53:10.503Z,18.80
2018-09-17T22:58:32.724Z,18.90
2018-09-17T23:03:54.626Z,18.80
2018-09-17T23:09:16.691Z,18.80
2018-09-17T23:14:38.478Z,18.90
2018-09-17T23:20:00.714Z,18.80
2018-09-17T23:25:22.592Z,18.90
2018-09-17T23:30:44.725Z,18.80
2018-09-17T23:36:06.463Z,18.70
2018-09-17T23:41:28.521Z,18.70
2018-09-17T23:46:50.350Z,18.60
2018-09-17T23:52:12.894Z,18.60
2018-09-17T23:57:35.102Z,18.60
